sensor_id;sensor_type;location;lat;lon;timestamp;temperature;humidity
1468;DHT22;727;48.892;9.544;2023-03-01T00:00:44;-0.70;99.90
1468;DHT22;727;48.892;9.544;2023-03-01T00:03:12;-0.80;99.90
1468;DHT22;727;48.892;9.544;2023-03-01T00:05:43;-0.80;99.90
1468;DHT22;727;48.892;9.544;2023-03-01T00:08:10;-0.80;99.90
1468;DHT22;727;48.892;9.544;2023-03-01T00:10:37;-0.80;99.90
1468;DHT22;727;48.892;9.544;2023-03-01T00:13:05;-0.70;99.90
1468;DHT22;727;48.892;9.544;2023-03-01T00:15:38;-0.70;99.90
1468;DHT22;727;48.892;9.544;2023-03-01T00:18:05;-0.80;99.90
1468;DHT22;727;48.892;9.544;2023-03-01T00:20:31;-0.70;99.90
1468;DHT22;727;48.892;9.544;2023-03-01T00:22:58;-0.70;99.90
1468;DHT22;727;48.892;9.544;2023-03-01T00:25:25;-0.80;99.90
1468;DHT22;727;48.892;9.544;2023-03-01T00:27:52;-0.90;99.90
1468;DHT22;727;48.892;9.544;2023-03-01T00:30:22;-0.90;99.90
1468;DHT22;727;48.892;9.544;2023-03-01T00:32:49;-1.00;99.90
1468;DHT22;727;48.892;9.544;2023-03-01T00:35:15;-1.00;99.90
1468;DHT22;727;48.892;9.544;2023-03-01T00:37:42;-0.90;99.90
1468;DHT22;727;48.892;9.544;2023-03-01T00:40:10;-0.90;99.90
1468;DHT22;727;48.892;9.544;2023-03-01T00:42:37;-0.90;99.90
1468;DHT22;727;48.892;9.544;2023-03-01T00:45:05;-1.00;99.90
1468;DHT22;727;48.892;9.544;2023-03-01T00:47:34;-1.00;99.90
1468;DHT22;727;48.892;9.544;2023-03-01T00:50:01;-1.00;99.90
1468;DHT22;727;48.892;9.544;2023-03-01T00:52:28;-1.10;99.90
1468;DHT22;727;48.892;9.544;2023-03-01T00:54:55;-1.10;99.90
1468;DHT22;727;48.892;9.544;2023-03-01T00:57:23;-1.00;99.90
1468;DHT22;727;48.892;9.544;2023-03-01T00:59:50;-1.00;99.90
1468;DHT22;727;48.892;9.544;2023-03-01T01:02:17;-1.00;99.90
1468;DHT22;727;48.892;9.544;2023-03-01T01:04:46;-1.00;99.90
1468;DHT22;727;48.892;9.544;2023-03-01T01:07:13;-0.60;99.90
1468;DHT22;727;48.892;9.544;2023-03-01T01:09:40;-0.50;99.90
1468;DHT22;727;48.892;9.544;2023-03-01T01:12:08;-0.50;99.90
1468;DHT22;727;48.892;9.544;2023-03-01T01:14:35;-0.30;99.90
1468;DHT22;727;48.892;9.544;2023-03-01T01:17:02;-0.20;99.90
1468;DHT22;727;48.892;9.544;2023-03-01T01:19:29;-0.10;99.90
1468;DHT22;727;48.892;9.544;2023-03-01T01:21:57;0.00;99.90
1468;DHT22;727;48.892;9.544;2023-03-01T01:24:24;0.10;99.90
1468;DHT22;727;48.892;9.544;2023-03-01T01:26:51;0.10;99.90
1468;DHT22;727;48.892;9.544;2023-03-01T01:29:18;0.30;99.90
1468;DHT22;727;48.892;9.544;2023-03-01T01:31:44;0.30;99.90
1468;DHT22;727;48.892;9.544;2023-03-01T01:34:15;0.30;99.90
1468;DHT22;727;48.892;9.544;2023-03-01T01:36:42;0.30;99.90
1468;DHT22;727;48.892;9.544;2023-03-01T01:39:10;0.30;99.90
1468;DHT22;727;48.892;9.544;2023-03-01T01:41:39;0.30;99.90
1468;DHT22;727;48.892;9.544;2023-03-01T01:44:15;0.40;99.90
1468;DHT22;727;48.892;9.544;2023-03-01T01:46:44;0.50;99.90
1468;DHT22;727;48.892;9.544;2023-03-01T01:49:23;0.60;99.90
1468;DHT22;727;48.892;9.544;2023-03-01T01:51:55;0.60;99.90
1468;DHT22;727;48.892;9.544;2023-03-01T01:54:28;0.70;99.90
1468;DHT22;727;48.892;9.544;2023-03-01T01:57:00;0.70;99.90
1468;DHT22;727;48.892;9.544;2023-03-01T01:59:30;0.70;99.90
1468;DHT22;727;48.892;9.544;2023-03-01T02:02:00;0.70;99.70
1468;DHT22;727;48.892;9.544;2023-03-01T02:04:28;0.70;99.90
1468;DHT22;727;48.892;9.544;2023-03-01T02:06:59;0.80;99.70
1468;DHT22;727;48.892;9.544;2023-03-01T02:09:30;0.70;99.60
1468;DHT22;727;48.892;9.544;2023-03-01T02:11:59;0.70;99.60
1468;DHT22;727;48.892;9.544;2023-03-01T02:14:26;0.70;99.70
1468;DHT22;727;48.892;9.544;2023-03-01T02:16:53;0.80;99.50
1468;DHT22;727;48.892;9.544;2023-03-01T02:19:29;0.80;99.30
1468;DHT22;727;48.892;9.544;2023-03-01T02:22:03;0.90;99.30
1468;DHT22;727;48.892;9.544;2023-03-01T02:24:40;0.80;99.30
1468;DHT22;727;48.892;9.544;2023-03-01T02:27:12;0.70;99.20
1468;DHT22;727;48.892;9.544;2023-03-01T02:29:41;0.70;99.30
1468;DHT22;727;48.892;9.544;2023-03-01T02:32:10;0.60;99.30
1468;DHT22;727;48.892;9.544;2023-03-01T02:34:36;0.70;99.50
1468;DHT22;727;48.892;9.544;2023-03-01T02:37:06;0.70;99.40
1468;DHT22;727;48.892;9.544;2023-03-01T02:39:37;0.80;99.30
1468;DHT22;727;48.892;9.544;2023-03-01T02:42:09;0.80;99.20
1468;DHT22;727;48.892;9.544;2023-03-01T02:44:37;0.70;99.20
1468;DHT22;727;48.892;9.544;2023-03-01T02:47:05;0.70;99.30
1468;DHT22;727;48.892;9.544;2023-03-01T02:49:35;0.70;99.30
1468;DHT22;727;48.892;9.544;2023-03-01T02:52:16;0.60;99.40
1468;DHT22;727;48.892;9.544;2023-03-01T02:54:48;0.70;99.30
1468;DHT22;727;48.892;9.544;2023-03-01T02:57:17;0.70;99.30
1468;DHT22;727;48.892;9.544;2023-03-01T02:59:44;0.80;99.10
1468;DHT22;727;48.892;9.544;2023-03-01T03:02:23;0.80;98.90
1468;DHT22;727;48.892;9.544;2023-03-01T03:05:02;0.70;99.20
1468;DHT22;727;48.892;9.544;2023-03-01T03:07:32;0.70;99.60
1468;DHT22;727;48.892;9.544;2023-03-01T03:09:59;0.70;99.40
1468;DHT22;727;48.892;9.544;2023-03-01T03:12:26;0.60;99.40
1468;DHT22;727;48.892;9.544;2023-03-01T03:14:53;0.60;99.90
1468;DHT22;727;48.892;9.544;2023-03-01T03:17:20;0.60;99.70
1468;DHT22;727;48.892;9.544;2023-03-01T03:19:48;0.60;99.80
1468;DHT22;727;48.892;9.544;2023-03-01T03:22:15;0.60;99.90
1468;DHT22;727;48.892;9.544;2023-03-01T03:24:41;0.70;99.90
1468;DHT22;727;48.892;9.544;2023-03-01T03:27:08;0.70;99.90
1468;DHT22;727;48.892;9.544;2023-03-01T03:29:35;0.80;99.80
1468;DHT22;727;48.892;9.544;2023-03-01T03:32:02;0.80;99.50
1468;DHT22;727;48.892;9.544;2023-03-01T03:34:29;0.70;99.30
1468;DHT22;727;48.892;9.544;2023-03-01T03:36:57;0.80;99.20
1468;DHT22;727;48.892;9.544;2023-03-01T03:39:25;0.80;99.30
1468;DHT22;727;48.892;9.544;2023-03-01T03:41:53;0.80;99.10
1468;DHT22;727;48.892;9.544;2023-03-01T03:44:20;0.80;99.10
1468;DHT22;727;48.892;9.544;2023-03-01T03:46:47;0.80;98.90
1468;DHT22;727;48.892;9.544;2023-03-01T03:49:14;0.80;99.10
1468;DHT22;727;48.892;9.544;2023-03-01T03:51:40;0.80;99.20
1468;DHT22;727;48.892;9.544;2023-03-01T03:54:09;0.80;99.30
1468;DHT22;727;48.892;9.544;2023-03-01T03:56:36;0.70;99.40
1468;DHT22;727;48.892;9.544;2023-03-01T03:59:03;0.60;99.60
1468;DHT22;727;48.892;9.544;2023-03-01T04:01:31;0.50;99.90
1468;DHT22;727;48.892;9.544;2023-03-01T04:03:58;0.60;99.90
1468;DHT22;727;48.892;9.544;2023-03-01T04:06:29;0.70;99.90
1468;DHT22;727;48.892;9.544;2023-03-01T04:08:56;0.60;99.90
1468;DHT22;727;48.892;9.544;2023-03-01T04:11:25;0.70;99.70
1468;DHT22;727;48.892;9.544;2023-03-01T04:13:54;0.70;99.50
1468;DHT22;727;48.892;9.544;2023-03-01T04:16:21;0.70;99.80
1468;DHT22;727;48.892;9.544;2023-03-01T04:18:48;0.60;99.90
1468;DHT22;727;48.892;9.544;2023-03-01T04:21:15;0.50;99.90
1468;DHT22;727;48.892;9.544;2023-03-01T04:23:42;0.50;99.90
1468;DHT22;727;48.892;9.544;2023-03-01T04:26:09;0.50;99.90
1468;DHT22;727;48.892;9.544;2023-03-01T04:28:38;0.50;99.90
1468;DHT22;727;48.892;9.544;2023-03-01T04:31:10;0.40;99.90
1468;DHT22;727;48.892;9.544;2023-03-01T04:33:40;0.60;99.90
1468;DHT22;727;48.892;9.544;2023-03-01T04:36:08;0.50;99.90
1468;DHT22;727;48.892;9.544;2023-03-01T04:38:36;0.50;99.90
1468;DHT22;727;48.892;9.544;2023-03-01T04:41:04;0.50;99.90
1468;DHT22;727;48.892;9.544;2023-03-01T04:43:31;0.50;99.90
1468;DHT22;727;48.892;9.544;2023-03-01T04:46:02;0.50;99.90
1468;DHT22;727;48.892;9.544;2023-03-01T04:48:29;0.50;99.90
1468;DHT22;727;48.892;9.544;2023-03-01T04:50:57;0.50;99.90
1468;DHT22;727;48.892;9.544;2023-03-01T04:53:25;0.50;99.90
1468;DHT22;727;48.892;9.544;2023-03-01T04:55:52;0.50;99.90
1468;DHT22;727;48.892;9.544;2023-03-01T04:58:20;0.40;99.90
1468;DHT22;727;48.892;9.544;2023-03-01T05:00:46;0.50;99.90
1468;DHT22;727;48.892;9.544;2023-03-01T05:03:17;0.50;99.90
1468;DHT22;727;48.892;9.544;2023-03-01T05:05:45;0.50;99.90
1468;DHT22;727;48.892;9.544;2023-03-01T05:08:13;0.50;99.90
1468;DHT22;727;48.892;9.544;2023-03-01T05:10:44;0.50;99.90
1468;DHT22;727;48.892;9.544;2023-03-01T05:13:13;0.60;99.90
1468;DHT22;727;48.892;9.544;2023-03-01T05:15:46;0.60;99.90
1468;DHT22;727;48.892;9.544;2023-03-01T05:18:15;0.60;99.90
1468;DHT22;727;48.892;9.544;2023-03-01T05:20:41;0.60;99.90
1468;DHT22;727;48.892;9.544;2023-03-01T05:23:10;0.60;99.90
1468;DHT22;727;48.892;9.544;2023-03-01T05:25:38;0.80;99.90
1468;DHT22;727;48.892;9.544;2023-03-01T05:28:11;0.80;99.90
1468;DHT22;727;48.892;9.544;2023-03-01T05:30:38;0.80;99.90
1468;DHT22;727;48.892;9.544;2023-03-01T05:33:08;0.80;99.90
1468;DHT22;727;48.892;9.544;2023-03-01T05:35:40;0.80;99.90
1468;DHT22;727;48.892;9.544;2023-03-01T05:38:09;0.80;99.90
1468;DHT22;727;48.892;9.544;2023-03-01T05:40:38;0.80;99.90
1468;DHT22;727;48.892;9.544;2023-03-01T05:43:06;0.80;99.90
1468;DHT22;727;48.892;9.544;2023-03-01T05:45:35;0.80;99.90
1468;DHT22;727;48.892;9.544;2023-03-01T05:48:03;0.80;99.90
1468;DHT22;727;48.892;9.544;2023-03-01T05:50:34;0.80;99.90
1468;DHT22;727;48.892;9.544;2023-03-01T05:53:04;0.80;99.90
1468;DHT22;727;48.892;9.544;2023-03-01T05:55:34;0.80;99.90
1468;DHT22;727;48.892;9.544;2023-03-01T05:58:02;0.70;99.90
1468;DHT22;727;48.892;9.544;2023-03-01T06:00:29;0.60;99.90
1468;DHT22;727;48.892;9.544;2023-03-01T06:02:58;0.50;99.90
1468;DHT22;727;48.892;9.544;2023-03-01T06:05:25;0.40;99.90
1468;DHT22;727;48.892;9.544;2023-03-01T06:07:52;0.30;99.90
1468;DHT22;727;48.892;9.544;2023-03-01T06:10:21;0.30;99.90
1468;DHT22;727;48.892;9.544;2023-03-01T06:12:48;0.20;99.90
1468;DHT22;727;48.892;9.544;2023-03-01T06:15:16;0.20;99.90
1468;DHT22;727;48.892;9.544;2023-03-01T06:17:43;0.30;99.90
1468;DHT22;727;48.892;9.544;2023-03-01T06:20:13;0.10;99.90
1468;DHT22;727;48.892;9.544;2023-03-01T06:22:41;0.10;99.90
1468;DHT22;727;48.892;9.544;2023-03-01T06:25:09;0.20;99.90
1468;DHT22;727;48.892;9.544;2023-03-01T06:27:37;0.20;99.90
1468;DHT22;727;48.892;9.544;2023-03-01T06:30:05;0.10;99.90
1468;DHT22;727;48.892;9.544;2023-03-01T06:32:32;0.10;99.90
1468;DHT22;727;48.892;9.544;2023-03-01T06:34:59;0.10;99.90
1468;DHT22;727;48.892;9.544;2023-03-01T06:37:26;0.10;99.90
1468;DHT22;727;48.892;9.544;2023-03-01T06:39:53;0.10;99.90
1468;DHT22;727;48.892;9.544;2023-03-01T06:42:19;0.10;99.90
1468;DHT22;727;48.892;9.544;2023-03-01T06:44:47;0.10;99.90
1468;DHT22;727;48.892;9.544;2023-03-01T06:47:14;0.10;99.90
1468;DHT22;727;48.892;9.544;2023-03-01T06:49:41;0.20;99.90
1468;DHT22;727;48.892;9.544;2023-03-01T06:52:08;0.30;99.90
1468;DHT22;727;48.892;9.544;2023-03-01T06:54:35;0.40;99.90
1468;DHT22;727;48.892;9.544;2023-03-01T06:57:01;0.40;99.90
1468;DHT22;727;48.892;9.544;2023-03-01T06:59:28;0.50;99.90
1468;DHT22;727;48.892;9.544;2023-03-01T07:01:57;0.70;99.90
1468;DHT22;727;48.892;9.544;2023-03-01T07:04:23;0.80;99.90
1468;DHT22;727;48.892;9.544;2023-03-01T07:06:50;1.00;99.90
1468;DHT22;727;48.892;9.544;2023-03-01T07:09:20;1.20;99.90
1468;DHT22;727;48.892;9.544;2023-03-01T07:11:47;1.90;99.90
1468;DHT22;727;48.892;9.544;2023-03-01T07:14:14;3.30;98.20
1468;DHT22;727;48.892;9.544;2023-03-01T07:16:41;4.70;96.10
1468;DHT22;727;48.892;9.544;2023-03-01T07:19:09;5.80;93.30
1468;DHT22;727;48.892;9.544;2023-03-01T07:21:36;6.70;90.30
1468;DHT22;727;48.892;9.544;2023-03-01T07:24:05;7.50;86.30
1468;DHT22;727;48.892;9.544;2023-03-01T07:26:32;8.50;81.80
1468;DHT22;727;48.892;9.544;2023-03-01T07:28:59;9.00;75.70
1468;DHT22;727;48.892;9.544;2023-03-01T07:31:26;9.00;72.70
1468;DHT22;727;48.892;9.544;2023-03-01T07:33:53;9.50;71.80
1468;DHT22;727;48.892;9.544;2023-03-01T07:36:22;10.10;68.10
1468;DHT22;727;48.892;9.544;2023-03-01T07:38:49;10.60;65.40
1468;DHT22;727;48.892;9.544;2023-03-01T07:41:16;10.90;63.10
1468;DHT22;727;48.892;9.544;2023-03-01T07:43:43;11.00;62.50
1468;DHT22;727;48.892;9.544;2023-03-01T07:46:10;11.10;59.50
1468;DHT22;727;48.892;9.544;2023-03-01T07:48:37;11.00;59.20
1468;DHT22;727;48.892;9.544;2023-03-01T07:51:05;11.10;59.20
1468;DHT22;727;48.892;9.544;2023-03-01T07:53:34;11.60;58.70
1468;DHT22;727;48.892;9.544;2023-03-01T07:56:02;12.10;58.30
1468;DHT22;727;48.892;9.544;2023-03-01T07:58:29;12.40;56.30
1468;DHT22;727;48.892;9.544;2023-03-01T08:01:00;11.40;57.10
1468;DHT22;727;48.892;9.544;2023-03-01T08:03:27;11.60;57.50
1468;DHT22;727;48.892;9.544;2023-03-01T08:05:54;12.10;56.60
1468;DHT22;727;48.892;9.544;2023-03-01T08:08:20;11.60;55.90
1468;DHT22;727;48.892;9.544;2023-03-01T08:10:49;11.70;56.00
1468;DHT22;727;48.892;9.544;2023-03-01T08:13:18;11.70;56.60
1468;DHT22;727;48.892;9.544;2023-03-01T08:15:47;12.00;56.00
1468;DHT22;727;48.892;9.544;2023-03-01T08:18:14;12.40;55.40
1468;DHT22;727;48.892;9.544;2023-03-01T08:20:41;12.30;55.20
1468;DHT22;727;48.892;9.544;2023-03-01T08:23:08;12.10;55.30
1468;DHT22;727;48.892;9.544;2023-03-01T08:25:35;11.80;55.70
1468;DHT22;727;48.892;9.544;2023-03-01T08:28:03;11.50;56.20
1468;DHT22;727;48.892;9.544;2023-03-01T08:30:30;11.10;56.20
1468;DHT22;727;48.892;9.544;2023-03-01T08:32:57;10.70;57.20
1468;DHT22;727;48.892;9.544;2023-03-01T08:35:24;11.00;57.40
1468;DHT22;727;48.892;9.544;2023-03-01T08:37:51;11.00;57.50
1468;DHT22;727;48.892;9.544;2023-03-01T08:40:18;11.00;57.10
1468;DHT22;727;48.892;9.544;2023-03-01T08:42:45;11.20;57.40
1468;DHT22;727;48.892;9.544;2023-03-01T08:45:13;11.30;56.80
1468;DHT22;727;48.892;9.544;2023-03-01T08:47:43;11.80;56.60
1468;DHT22;727;48.892;9.544;2023-03-01T08:50:11;11.90;55.50
1468;DHT22;727;48.892;9.544;2023-03-01T08:52:40;11.60;55.90
1468;DHT22;727;48.892;9.544;2023-03-01T08:55:08;12.30;55.70
1468;DHT22;727;48.892;9.544;2023-03-01T08:57:35;13.00;54.70
1468;DHT22;727;48.892;9.544;2023-03-01T09:00:02;13.30;53.30
1468;DHT22;727;48.892;9.544;2023-03-01T09:02:35;13.30;52.80
1468;DHT22;727;48.892;9.544;2023-03-01T09:05:02;13.10;52.50
1468;DHT22;727;48.892;9.544;2023-03-01T09:07:29;12.40;53.40
1468;DHT22;727;48.892;9.544;2023-03-01T09:09:56;12.60;53.20
1468;DHT22;727;48.892;9.544;2023-03-01T09:12:23;13.30;52.90
1468;DHT22;727;48.892;9.544;2023-03-01T09:14:50;13.80;51.40
1468;DHT22;727;48.892;9.544;2023-03-01T09:17:19;13.00;51.60
1468;DHT22;727;48.892;9.544;2023-03-01T09:19:48;12.20;52.70
1468;DHT22;727;48.892;9.544;2023-03-01T09:22:15;12.80;53.50
1468;DHT22;727;48.892;9.544;2023-03-01T09:24:42;13.00;52.20
1468;DHT22;727;48.892;9.544;2023-03-01T09:27:09;12.90;52.20
1468;DHT22;727;48.892;9.544;2023-03-01T09:29:38;13.60;51.60
1468;DHT22;727;48.892;9.544;2023-03-01T09:32:08;14.10;50.80
1468;DHT22;727;48.892;9.544;2023-03-01T09:34:35;14.70;50.90
1468;DHT22;727;48.892;9.544;2023-03-01T09:37:24;15.30;49.30
1468;DHT22;727;48.892;9.544;2023-03-01T09:39:50;15.20;49.10
1468;DHT22;727;48.892;9.544;2023-03-01T09:42:17;15.20;48.50
1468;DHT22;727;48.892;9.544;2023-03-01T09:44:49;15.20;48.00
1468;DHT22;727;48.892;9.544;2023-03-01T09:47:20;14.90;48.10
1468;DHT22;727;48.892;9.544;2023-03-01T09:49:53;14.80;48.50
1468;DHT22;727;48.892;9.544;2023-03-01T09:52:30;15.20;48.10
1468;DHT22;727;48.892;9.544;2023-03-01T09:55:00;15.70;47.00
1468;DHT22;727;48.892;9.544;2023-03-01T09:57:31;14.80;47.70
1468;DHT22;727;48.892;9.544;2023-03-01T10:00:09;15.10;47.90
1468;DHT22;727;48.892;9.544;2023-03-01T10:02:41;15.40;46.90
1468;DHT22;727;48.892;9.544;2023-03-01T10:05:21;15.40;46.50
1468;DHT22;727;48.892;9.544;2023-03-01T10:08:03;14.80;47.30
1468;DHT22;727;48.892;9.544;2023-03-01T10:10:34;13.90;47.80
1468;DHT22;727;48.892;9.544;2023-03-01T10:13:09;13.70;48.60
1468;DHT22;727;48.892;9.544;2023-03-01T10:15:44;13.40;48.80
1468;DHT22;727;48.892;9.544;2023-03-01T10:18:18;13.50;49.40
1468;DHT22;727;48.892;9.544;2023-03-01T10:20:48;13.20;50.20
1468;DHT22;727;48.892;9.544;2023-03-01T10:23:19;14.20;49.20
1468;DHT22;727;48.892;9.544;2023-03-01T10:26:04;15.30;48.50
1468;DHT22;727;48.892;9.544;2023-03-01T10:28:44;16.20;46.30
1468;DHT22;727;48.892;9.544;2023-03-01T10:31:16;15.60;46.10
1468;DHT22;727;48.892;9.544;2023-03-01T10:33:44;16.30;46.00
1468;DHT22;727;48.892;9.544;2023-03-01T10:36:18;16.60;46.20
1468;DHT22;727;48.892;9.544;2023-03-01T10:38:52;17.00;45.00
1468;DHT22;727;48.892;9.544;2023-03-01T10:41:21;17.30;44.70
1468;DHT22;727;48.892;9.544;2023-03-01T10:43:52;17.60;44.30
1468;DHT22;727;48.892;9.544;2023-03-01T10:46:28;16.50;44.20
1468;DHT22;727;48.892;9.544;2023-03-01T10:49:14;15.90;45.00
1468;DHT22;727;48.892;9.544;2023-03-01T10:51:47;14.70;46.50
1468;DHT22;727;48.892;9.544;2023-03-01T10:54:19;15.40;46.30
1468;DHT22;727;48.892;9.544;2023-03-01T10:56:49;15.30;46.70
1468;DHT22;727;48.892;9.544;2023-03-01T10:59:30;15.10;47.40
1468;DHT22;727;48.892;9.544;2023-03-01T11:02:07;15.20;46.90
1468;DHT22;727;48.892;9.544;2023-03-01T11:04:40;15.60;46.70
1468;DHT22;727;48.892;9.544;2023-03-01T11:07:22;15.60;46.60
1468;DHT22;727;48.892;9.544;2023-03-01T11:09:50;16.00;45.70
1468;DHT22;727;48.892;9.544;2023-03-01T11:12:18;16.50;45.70
1468;DHT22;727;48.892;9.544;2023-03-01T11:14:50;17.20;44.60
1468;DHT22;727;48.892;9.544;2023-03-01T11:17:21;17.20;43.90
1468;DHT22;727;48.892;9.544;2023-03-01T11:20:01;16.40;43.80
1468;DHT22;727;48.892;9.544;2023-03-01T11:22:31;15.80;45.50
1468;DHT22;727;48.892;9.544;2023-03-01T11:25:01;15.50;45.10
1468;DHT22;727;48.892;9.544;2023-03-01T11:27:31;15.80;45.60
1468;DHT22;727;48.892;9.544;2023-03-01T11:30:05;16.20;45.00
1468;DHT22;727;48.892;9.544;2023-03-01T11:32:38;16.50;45.20
1468;DHT22;727;48.892;9.544;2023-03-01T11:35:13;17.20;44.10
1468;DHT22;727;48.892;9.544;2023-03-01T11:37:46;17.60;43.50
1468;DHT22;727;48.892;9.544;2023-03-01T11:40:24;17.60;42.70
1468;DHT22;727;48.892;9.544;2023-03-01T11:43:02;16.90;43.70
1468;DHT22;727;48.892;9.544;2023-03-01T11:45:41;16.80;43.90
1468;DHT22;727;48.892;9.544;2023-03-01T11:48:24;16.00;43.50
1468;DHT22;727;48.892;9.544;2023-03-01T11:50:58;16.00;44.00
1468;DHT22;727;48.892;9.544;2023-03-01T11:53:34;16.30;44.60
1468;DHT22;727;48.892;9.544;2023-03-01T11:56:16;16.20;44.90
1468;DHT22;727;48.892;9.544;2023-03-01T11:59:06;16.50;44.20
1468;DHT22;727;48.892;9.544;2023-03-01T12:01:50;17.00;43.40
1468;DHT22;727;48.892;9.544;2023-03-01T12:07:16;17.20;43.30
1468;DHT22;727;48.892;9.544;2023-03-01T12:09:59;16.40;44.40
1468;DHT22;727;48.892;9.544;2023-03-01T12:12:37;16.10;44.50
1468;DHT22;727;48.892;9.544;2023-03-01T12:15:32;15.10;45.70
1468;DHT22;727;48.892;9.544;2023-03-01T12:18:24;15.10;46.70
1468;DHT22;727;48.892;9.544;2023-03-01T12:21:02;15.30;46.20
1468;DHT22;727;48.892;9.544;2023-03-01T12:23:52;15.60;46.20
1468;DHT22;727;48.892;9.544;2023-03-01T12:26:28;15.90;44.40
1468;DHT22;727;48.892;9.544;2023-03-01T12:29:11;15.70;44.50
1468;DHT22;727;48.892;9.544;2023-03-01T12:31:54;16.40;44.80
1468;DHT22;727;48.892;9.544;2023-03-01T12:34:36;16.90;44.60
1468;DHT22;727;48.892;9.544;2023-03-01T12:37:25;17.50;43.80
1468;DHT22;727;48.892;9.544;2023-03-01T12:40:21;16.50;43.30
1468;DHT22;727;48.892;9.544;2023-03-01T12:42:57;17.20;44.30
1468;DHT22;727;48.892;9.544;2023-03-01T12:48:37;16.90;43.50
1468;DHT22;727;48.892;9.544;2023-03-01T12:51:10;16.80;44.10
1468;DHT22;727;48.892;9.544;2023-03-01T12:53:43;17.40;44.70
1468;DHT22;727;48.892;9.544;2023-03-01T12:56:14;17.90;42.80
1468;DHT22;727;48.892;9.544;2023-03-01T12:58:50;17.00;43.10
1468;DHT22;727;48.892;9.544;2023-03-01T13:01:31;16.50;43.30
1468;DHT22;727;48.892;9.544;2023-03-01T13:04:12;16.40;44.60
1468;DHT22;727;48.892;9.544;2023-03-01T13:06:47;16.00;44.40
1468;DHT22;727;48.892;9.544;2023-03-01T13:09:24;15.30;45.60
1468;DHT22;727;48.892;9.544;2023-03-01T13:11:54;15.10;46.00
1468;DHT22;727;48.892;9.544;2023-03-01T13:14:51;14.50;47.10
1468;DHT22;727;48.892;9.544;2023-03-01T13:17:33;14.40;47.30
1468;DHT22;727;48.892;9.544;2023-03-01T13:20:15;14.10;48.00
1468;DHT22;727;48.892;9.544;2023-03-01T13:22:47;14.30;48.60
1468;DHT22;727;48.892;9.544;2023-03-01T13:25:16;14.30;47.60
1468;DHT22;727;48.892;9.544;2023-03-01T13:27:47;14.10;48.20
1468;DHT22;727;48.892;9.544;2023-03-01T13:30:38;14.10;48.00
1468;DHT22;727;48.892;9.544;2023-03-01T13:36:09;13.90;48.20
1468;DHT22;727;48.892;9.544;2023-03-01T13:38:45;13.70;49.30
1468;DHT22;727;48.892;9.544;2023-03-01T13:41:14;13.60;49.50
1468;DHT22;727;48.892;9.544;2023-03-01T13:43:44;13.50;49.70
1468;DHT22;727;48.892;9.544;2023-03-01T13:46:17;13.90;49.50
1468;DHT22;727;48.892;9.544;2023-03-01T13:48:50;13.10;49.80
1468;DHT22;727;48.892;9.544;2023-03-01T13:51:24;13.10;50.10
1468;DHT22;727;48.892;9.544;2023-03-01T13:53:53;13.20;50.50
1468;DHT22;727;48.892;9.544;2023-03-01T13:56:25;13.50;49.70
1468;DHT22;727;48.892;9.544;2023-03-01T13:58:54;13.30;50.10
1468;DHT22;727;48.892;9.544;2023-03-01T14:01:25;13.00;50.60
1468;DHT22;727;48.892;9.544;2023-03-01T14:03:53;12.90;51.40
1468;DHT22;727;48.892;9.544;2023-03-01T14:06:23;12.60;51.80
1468;DHT22;727;48.892;9.544;2023-03-01T14:08:59;12.00;52.10
1468;DHT22;727;48.892;9.544;2023-03-01T14:17:44;10.40;55.50
1468;DHT22;727;48.892;9.544;2023-03-01T14:20:18;10.30;56.40
1468;DHT22;727;48.892;9.544;2023-03-01T14:22:48;10.10;56.10
1468;DHT22;727;48.892;9.544;2023-03-01T14:25:25;10.10;56.40
1468;DHT22;727;48.892;9.544;2023-03-01T14:28:02;10.10;56.90
1468;DHT22;727;48.892;9.544;2023-03-01T14:30:33;10.00;57.40
1468;DHT22;727;48.892;9.544;2023-03-01T14:33:02;10.30;57.00
1468;DHT22;727;48.892;9.544;2023-03-01T14:35:31;10.30;56.70
1468;DHT22;727;48.892;9.544;2023-03-01T14:38:01;10.20;57.00
1468;DHT22;727;48.892;9.544;2023-03-01T14:40:29;10.10;57.20
1468;DHT22;727;48.892;9.544;2023-03-01T14:42:59;9.90;58.60
1468;DHT22;727;48.892;9.544;2023-03-01T14:45:28;9.90;58.50
1468;DHT22;727;48.892;9.544;2023-03-01T14:48:00;9.70;58.70
1468;DHT22;727;48.892;9.544;2023-03-01T14:50:30;9.70;59.10
1468;DHT22;727;48.892;9.544;2023-03-01T14:53:01;9.70;59.30
1468;DHT22;727;48.892;9.544;2023-03-01T14:55:31;9.70;59.50
1468;DHT22;727;48.892;9.544;2023-03-01T14:58:03;9.80;59.70
1468;DHT22;727;48.892;9.544;2023-03-01T15:00:32;9.70;58.80
1468;DHT22;727;48.892;9.544;2023-03-01T15:03:06;9.70;59.10
1468;DHT22;727;48.892;9.544;2023-03-01T15:05:35;9.50;58.90
1468;DHT22;727;48.892;9.544;2023-03-01T15:08:04;9.40;59.30
1468;DHT22;727;48.892;9.544;2023-03-01T15:10:34;9.20;59.80
1468;DHT22;727;48.892;9.544;2023-03-01T15:13:12;9.10;59.40
1468;DHT22;727;48.892;9.544;2023-03-01T15:15:41;9.10;59.50
1468;DHT22;727;48.892;9.544;2023-03-01T15:18:16;9.10;60.30
1468;DHT22;727;48.892;9.544;2023-03-01T15:20:45;9.00;60.00
1468;DHT22;727;48.892;9.544;2023-03-01T15:23:20;9.00;60.00
1468;DHT22;727;48.892;9.544;2023-03-01T15:25:49;9.00;60.30
1468;DHT22;727;48.892;9.544;2023-03-01T15:28:24;9.00;59.70
1468;DHT22;727;48.892;9.544;2023-03-01T15:30:55;8.90;60.00
1468;DHT22;727;48.892;9.544;2023-03-01T15:33:30;8.80;60.00
1468;DHT22;727;48.892;9.544;2023-03-01T15:35:58;8.80;60.60
1468;DHT22;727;48.892;9.544;2023-03-01T15:38:30;8.70;60.70
1468;DHT22;727;48.892;9.544;2023-03-01T15:40:59;8.70;60.50
1468;DHT22;727;48.892;9.544;2023-03-01T15:43:42;8.70;60.70
1468;DHT22;727;48.892;9.544;2023-03-01T15:46:18;8.70;60.50
1468;DHT22;727;48.892;9.544;2023-03-01T15:48:48;8.70;60.60
1468;DHT22;727;48.892;9.544;2023-03-01T15:51:26;8.80;60.60
1468;DHT22;727;48.892;9.544;2023-03-01T15:53:58;8.70;60.60
1468;DHT22;727;48.892;9.544;2023-03-01T15:56:27;8.80;61.40
1468;DHT22;727;48.892;9.544;2023-03-01T15:58:57;8.70;61.70
1468;DHT22;727;48.892;9.544;2023-03-01T16:01:25;8.60;60.50
1468;DHT22;727;48.892;9.544;2023-03-01T16:03:52;8.60;61.10
1468;DHT22;727;48.892;9.544;2023-03-01T16:06:19;8.40;61.80
1468;DHT22;727;48.892;9.544;2023-03-01T16:08:46;8.40;61.20
1468;DHT22;727;48.892;9.544;2023-03-01T16:11:17;8.30;61.60
1468;DHT22;727;48.892;9.544;2023-03-01T16:13:45;8.20;62.00
1468;DHT22;727;48.892;9.544;2023-03-01T16:16:14;8.20;63.00
1468;DHT22;727;48.892;9.544;2023-03-01T16:18:42;8.10;63.10
1468;DHT22;727;48.892;9.544;2023-03-01T16:21:14;8.00;63.00
1468;DHT22;727;48.892;9.544;2023-03-01T16:23:43;8.00;63.00
1468;DHT22;727;48.892;9.544;2023-03-01T16:26:10;7.90;63.90
1468;DHT22;727;48.892;9.544;2023-03-01T16:28:40;7.80;64.00
1468;DHT22;727;48.892;9.544;2023-03-01T16:31:07;7.70;64.70
1468;DHT22;727;48.892;9.544;2023-03-01T16:33:34;7.50;65.60
1468;DHT22;727;48.892;9.544;2023-03-01T16:36:09;7.50;65.30
1468;DHT22;727;48.892;9.544;2023-03-01T16:38:37;7.40;65.40
1468;DHT22;727;48.892;9.544;2023-03-01T16:41:04;7.50;65.90
1468;DHT22;727;48.892;9.544;2023-03-01T16:43:33;7.40;65.60
1468;DHT22;727;48.892;9.544;2023-03-01T16:46:01;7.30;65.80
1468;DHT22;727;48.892;9.544;2023-03-01T16:48:29;7.10;66.70
1468;DHT22;727;48.892;9.544;2023-03-01T16:50:58;7.00;67.40
1468;DHT22;727;48.892;9.544;2023-03-01T16:53:25;6.80;67.70
1468;DHT22;727;48.892;9.544;2023-03-01T16:55:53;6.70;68.50
1468;DHT22;727;48.892;9.544;2023-03-01T16:58:20;6.50;69.40
1468;DHT22;727;48.892;9.544;2023-03-01T17:00:50;6.30;70.10
1468;DHT22;727;48.892;9.544;2023-03-01T17:03:20;6.20;70.80